Change the Weather History Date:

Wednesday, June 12, 2013

  Actual Average (KCHS) Record (KCHS)
Temperature  
Mean Temperature 84 °F 78 °F  
Max Temperature 93 °F 88 °F 96 °F (1963)
Min Temperature 75 °F 69 °F 50 °F (1972)
Degree Days  
Heating Degree Days 0 0  
Month to date heating degree days 0  
Since 1 June heating degree days 0  
Since 1 July heating degree days 1975  
Cooling Degree Days 19 14  
Month to date cooling degree days 150  
Year to date cooling degree days 512  
Since 1 June cooling degree days 150  
Growing Degree Days 34 (Base 50)    
Moisture  
Dew Point 76 °F    
Average Humidity 78    
Maximum Humidity 100    
Minimum Humidity 46    
Precipitation  
Precipitation 0.00 in 0.17 in 2.13 in (2012)
Month to date precipitation 1.97  
Year to date precipitation 18.28  
Sea Level Pressure  
Sea Level Pressure 29.97 in    
Wind  
Wind Speed 5 mph (SW)    
Max Wind Speed 14 mph    
Max Gust Speed 17 mph    
Visibility 9 miles    
Events      
T = Trace of Precipitation, MM = Missing Value Source: NWS Daily Summary

Daily Weather History Graph

Daily Weather History Graph

Search for Another Location

Airport or City:

Trip Planner

Search our weather history database for the weather conditions in past years. The results will help you decide how hot, cold, wet, or windy it might be!

Date:

Astronomy

Jun. 12, 2013 Rise Set
Actual Time 6:11 AM EDT 8:28 PM EDT
Civil Twilight 5:43 AM EDT 8:56 PM EDT
Nautical Twilight 5:08 AM EDT 9:31 PM EDT
Astronomical Twilight 4:30 AM EDT 10:09 PM EDT
Moon 9:40 AM EDT (6/12) 11:14 PM EDT (6/12)
Length of Visible Light 15h 13m
Length of Day
14h 16m
Waxing Crescent, 14% of the Moon is Illuminated
Jun 12
Waxing Crescent
Jun 16
First Quarter
Jun 23
Full
Jun 30
Last Quarter
Jul 8
New

Hourly Weather History & Observations

Time (EDT) Temp. Heat Index Dew Point Humidity Pressure Visibility Wind Dir Wind Speed Gust Speed Precip Events Conditions
12:15 AM 78.8 °F - 78.8 °F 100% 29.99 in 5.0 mi SSW 6.9 mph - 0.00 in   Partly Cloudy
12:35 AM 78.8 °F - 78.8 °F 100% 29.99 in 5.0 mi SW 5.8 mph - 0.00 in   Partly Cloudy
12:55 AM 78.8 °F - 78.8 °F 100% 30.00 in 5.0 mi WSW 4.6 mph - 0.00 in   Partly Cloudy
1:15 AM 78.8 °F - 77.0 °F 94% 29.99 in 5.0 mi Calm Calm - 0.00 in   Partly Cloudy
1:35 AM 78.8 °F - 77.0 °F 94% 29.98 in 5.0 mi Calm Calm - 0.00 in   Scattered Clouds
1:55 AM 78.8 °F - 78.8 °F 100% 29.98 in 4.0 mi Calm Calm - 0.00 in   Partly Cloudy
2:15 AM 78.8 °F - 78.8 °F 100% 29.98 in 3.0 mi SSW 4.6 mph - 0.00 in   Mostly Cloudy
2:35 AM 78.8 °F - 78.8 °F 100% 29.98 in 3.0 mi Calm Calm - 0.00 in   Scattered Clouds
2:55 AM 78.8 °F - 78.8 °F 100% 29.97 in 4.0 mi SW 4.6 mph - 0.00 in   Partly Cloudy
3:15 AM 78.8 °F - 75.2 °F 89% 29.97 in 7.0 mi SW 5.8 mph - 0.00 in   Partly Cloudy
3:35 AM 78.8 °F - 75.2 °F 89% 29.97 in 10.0 mi SW 5.8 mph - 0.00 in   Partly Cloudy
3:55 AM 78.8 °F - 73.4 °F 83% 29.96 in 10.0 mi SW 5.8 mph - 0.00 in   Clear
4:15 AM 77.0 °F - 73.4 °F 89% 29.96 in 10.0 mi SW 4.6 mph - 0.00 in   Clear
4:35 AM 77.0 °F - 73.4 °F 89% 29.96 in 10.0 mi WSW 5.8 mph - 0.00 in   Clear
4:55 AM 77.0 °F - 73.4 °F 89% 29.96 in 10.0 mi WSW 6.9 mph - 0.00 in   Clear
5:15 AM 75.2 °F - 71.6 °F 89% 29.96 in 10.0 mi West 5.8 mph - 0.00 in   Clear
5:35 AM 75.2 °F - 73.4 °F 94% 29.97 in 9.0 mi West 4.6 mph - 0.00 in   Clear
5:55 AM 75.2 °F - 71.6 °F 89% 29.98 in 9.0 mi West 4.6 mph - 0.00 in   Clear
6:15 AM 75.2 °F - 71.6 °F 89% 29.98 in 7.0 mi Calm Calm - 0.00 in   Clear
6:35 AM 75.2 °F - 71.6 °F 89% 29.98 in 6.0 mi Calm Calm - 0.00 in   Clear
6:55 AM 75.2 °F - 71.6 °F 89% 29.99 in 7.0 mi Calm Calm - 0.00 in   Clear
7:15 AM 77.0 °F - 73.4 °F 89% 29.99 in 8.0 mi West 4.6 mph - 0.00 in   Clear
7:35 AM 78.8 °F - 73.4 °F 83% 30.00 in 8.0 mi West 8.1 mph - 0.00 in   Clear
7:55 AM 80.6 °F 85.4 °F 73.4 °F 79% 30.00 in 8.0 mi West 8.1 mph - 0.00 in   Clear
8:15 AM 80.6 °F 85.4 °F 73.4 °F 79% 30.00 in 8.0 mi West 6.9 mph - 0.00 in   Clear
8:35 AM 82.4 °F 88.2 °F 73.4 °F 74% 30.00 in 8.0 mi West 8.1 mph - 0.00 in   Clear
8:55 AM 82.4 °F 89.5 °F 75.2 °F 79% 30.00 in 10.0 mi West 5.8 mph - 0.00 in   Clear
9:15 AM 84.2 °F 92.3 °F 75.2 °F 74% 30.00 in 9.0 mi WNW 5.8 mph - 0.00 in   Clear
9:35 AM 86.0 °F 95.1 °F 75.2 °F 70% 30.00 in 10.0 mi WNW 6.9 mph - 0.00 in   Clear
9:55 AM 87.8 °F 97.6 °F 75.2 °F 66% 30.00 in 10.0 mi WNW 5.8 mph - 0.00 in   Clear
10:15 AM 87.8 °F 95.6 °F 73.4 °F 62% 30.00 in 10.0 mi WNW 4.6 mph - 0.00 in   Clear
10:35 AM 87.8 °F 97.6 °F 75.2 °F 66% 30.00 in 10.0 mi NW 3.5 mph - 0.00 in   Clear
10:55 AM 89.6 °F 98.2 °F 73.4 °F 59% 30.01 in 10.0 mi NW 3.5 mph - 0.00 in   Clear
11:15 AM 89.6 °F 98.2 °F 73.4 °F 59% 30.01 in 10.0 mi NW 5.8 mph - 0.00 in   Clear
11:35 AM 89.6 °F 98.2 °F 73.4 °F 59% 30.02 in 10.0 mi WNW 6.9 mph - 0.00 in   Clear
11:55 AM 89.6 °F 96.2 °F 71.6 °F 55% 30.01 in 10.0 mi Calm Calm - 0.00 in   Clear
12:15 PM 91.4 °F 100.1 °F 73.4 °F 55% 30.01 in 10.0 mi WSW 3.5 mph - 0.00 in   Partly Cloudy
12:35 PM 93.2 °F 100.5 °F 71.6 °F 49% 30.00 in 10.0 mi WNW 3.5 mph - 0.00 in   Partly Cloudy
12:55 PM 93.2 °F 102.4 °F 73.4 °F 52% 30.00 in 10.0 mi WNW 3.5 mph - 0.00 in   Scattered Clouds
1:15 PM 93.2 °F 100.5 °F 71.6 °F 49% 29.99 in 10.0 mi West 8.1 mph - 0.00 in   Partly Cloudy
1:35 PM 93.2 °F 98.8 °F 69.8 °F 46% 29.99 in 10.0 mi Calm Calm - 0.00 in   Scattered Clouds
1:55 PM 93.2 °F 98.8 °F 69.8 °F 46% 29.99 in 10.0 mi Calm Calm - 0.00 in   Partly Cloudy
2:15 PM 93.2 °F 100.5 °F 71.6 °F 49% 29.99 in 10.0 mi Calm Calm - 0.00 in   Scattered Clouds
2:35 PM 91.4 °F 107.2 °F 78.8 °F 66% 29.98 in 10.0 mi SSW 6.9 mph - 0.00 in   Partly Cloudy
2:55 PM 89.6 °F 104.7 °F 78.8 °F 70% 29.97 in 10.0 mi SSE 8.1 mph - 0.00 in   Partly Cloudy
3:15 PM 89.6 °F 99.8 °F 75.2 °F 62% 29.97 in 10.0 mi SSW 4.6 mph - 0.00 in   Scattered Clouds
3:35 PM 91.4 °F 105.1 °F 77.0 °F 63% 29.96 in 10.0 mi South 10.4 mph - 0.00 in   Mostly Cloudy
3:55 PM 89.6 °F 104.7 °F 78.8 °F 70% 29.95 in 10.0 mi South 10.4 mph 17.3 mph 0.00 in   Partly Cloudy
4:15 PM 89.6 °F 104.7 °F 78.8 °F 70% 29.95 in 10.0 mi SSW 13.8 mph - 0.00 in   Clear
4:35 PM 89.6 °F 102.2 °F 77.0 °F 66% 29.95 in 10.0 mi SSW 11.5 mph - 0.00 in   Clear
4:55 PM 91.4 °F 105.1 °F 77.0 °F 63% 29.94 in 10.0 mi SSW 8.1 mph - 0.00 in   Clear
5:15 PM 91.4 °F 107.2 °F 78.8 °F 66% 29.94 in 10.0 mi South 11.5 mph - 0.00 in   Clear
5:35 PM 89.6 °F 102.2 °F 77.0 °F 66% 29.93 in 10.0 mi SSW 9.2 mph - 0.00 in   Clear
5:55 PM 89.6 °F 102.2 °F 77.0 °F 66% 29.93 in 10.0 mi South 3.5 mph - 0.00 in   Clear
6:15 PM 89.6 °F 102.2 °F 77.0 °F 66% 29.93 in 10.0 mi SSW 8.1 mph - 0.00 in   Clear
6:35 PM 89.6 °F 104.7 °F 78.8 °F 70% 29.93 in 10.0 mi SW 6.9 mph - 0.00 in   Clear
6:55 PM 89.6 °F 104.7 °F 78.8 °F 70% 29.94 in 10.0 mi SW 5.8 mph - 0.00 in   Clear
7:15 PM 87.8 °F 99.7 °F 77.0 °F 70% 29.94 in 10.0 mi Calm Calm - 0.00 in   Clear
7:35 PM 87.8 °F 102.5 °F 78.8 °F 75% 29.94 in 10.0 mi SSW 9.2 mph - 0.00 in   Clear
7:55 PM 84.2 °F 96.1 °F 78.8 °F 84% 29.93 in 10.0 mi SSW 5.8 mph - 0.00 in   Clear
8:15 PM 84.2 °F 96.1 °F 78.8 °F 84% 29.94 in 9.0 mi SSW 5.8 mph - 0.00 in   Clear
8:35 PM 84.2 °F 96.1 °F 78.8 °F 84% 29.95 in 9.0 mi SSW 6.9 mph - 0.00 in   Clear
8:55 PM 82.4 °F 92.4 °F 78.8 °F 89% 29.95 in 10.0 mi SW 5.8 mph - 0.00 in   Clear
9:15 PM 82.4 °F 92.4 °F 78.8 °F 89% 29.96 in 10.0 mi SW 5.8 mph - 0.00 in   Clear
9:35 PM 82.4 °F 92.4 °F 78.8 °F 89% 29.96 in 9.0 mi SW 6.9 mph - 0.00 in   Clear
9:55 PM 82.4 °F 92.4 °F 78.8 °F 89% 29.95 in 9.0 mi Calm Calm - 0.00 in   Clear
10:15 PM 80.6 °F 88.1 °F 78.8 °F 94% 29.96 in 8.0 mi Calm Calm - 0.00 in   Clear
10:35 PM 80.6 °F 88.1 °F 78.8 °F 94% 29.96 in 6.0 mi South 4.6 mph - 0.00 in   Clear
10:55 PM 82.4 °F 92.4 °F 78.8 °F 89% 29.96 in 8.0 mi SSW 6.9 mph - 0.00 in   Clear
11:15 PM 82.4 °F 92.4 °F 78.8 °F 89% 29.96 in 8.0 mi SSW 6.9 mph - 0.00 in   Clear
11:35 PM 82.4 °F 92.4 °F 78.8 °F 89% 29.95 in 8.0 mi SSW 8.1 mph - 0.00 in   Clear
11:55 PM 82.4 °F 92.4 °F 78.8 °F 89% 29.95 in 8.0 mi SSW 9.2 mph - 0.00 in   Clear